sensor_id;sensor_type;location;lat;lon;timestamp;temperature;humidity
46416;DHT22;32620;51.704;7.822;2023-11-21T00:00:38;7.80;99.90
46416;DHT22;32620;51.704;7.822;2023-11-21T00:03:03;7.80;99.90
46416;DHT22;32620;51.704;7.822;2023-11-21T00:05:29;7.70;99.90
46416;DHT22;32620;51.704;7.822;2023-11-21T00:07:55;7.70;99.90
46416;DHT22;32620;51.704;7.822;2023-11-21T00:10:20;7.70;99.90
46416;DHT22;32620;51.704;7.822;2023-11-21T00:12:46;7.70;99.90
46416;DHT22;32620;51.704;7.822;2023-11-21T00:15:13;7.70;99.90
46416;DHT22;32620;51.704;7.822;2023-11-21T00:17:39;7.70;99.90
46416;DHT22;32620;51.704;7.822;2023-11-21T00:20:06;7.70;99.90
46416;DHT22;32620;51.704;7.822;2023-11-21T00:22:34;7.70;99.90
46416;DHT22;32620;51.704;7.822;2023-11-21T00:24:59;7.70;99.90
46416;DHT22;32620;51.704;7.822;2023-11-21T00:27:25;7.70;99.90
46416;DHT22;32620;51.704;7.822;2023-11-21T00:29:51;7.70;99.90
46416;DHT22;32620;51.704;7.822;2023-11-21T00:32:16;7.70;99.90
46416;DHT22;32620;51.704;7.822;2023-11-21T00:34:42;7.70;99.90
46416;DHT22;32620;51.704;7.822;2023-11-21T00:37:07;7.70;99.90
46416;DHT22;32620;51.704;7.822;2023-11-21T00:39:33;7.70;99.90
46416;DHT22;32620;51.704;7.822;2023-11-21T00:42:00;7.70;99.90
46416;DHT22;32620;51.704;7.822;2023-11-21T00:44:26;7.60;99.90
46416;DHT22;32620;51.704;7.822;2023-11-21T00:46:51;7.70;99.90
46416;DHT22;32620;51.704;7.822;2023-11-21T00:49:17;7.70;99.90
46416;DHT22;32620;51.704;7.822;2023-11-21T00:51:43;7.70;99.90
46416;DHT22;32620;51.704;7.822;2023-11-21T00:54:08;7.70;99.90
46416;DHT22;32620;51.704;7.822;2023-11-21T00:56:34;7.60;99.90
46416;DHT22;32620;51.704;7.822;2023-11-21T00:58:59;7.60;99.90
46416;DHT22;32620;51.704;7.822;2023-11-21T01:01:25;7.60;99.90
46416;DHT22;32620;51.704;7.822;2023-11-21T01:03:50;7.60;99.90
46416;DHT22;32620;51.704;7.822;2023-11-21T01:06:16;7.60;99.90
46416;DHT22;32620;51.704;7.822;2023-11-21T01:08:43;7.60;99.90
46416;DHT22;32620;51.704;7.822;2023-11-21T01:11:09;7.60;99.90
46416;DHT22;32620;51.704;7.822;2023-11-21T01:13:38;7.60;99.90
46416;DHT22;32620;51.704;7.822;2023-11-21T01:16:04;7.60;99.90
46416;DHT22;32620;51.704;7.822;2023-11-21T01:18:31;7.50;99.90
46416;DHT22;32620;51.704;7.822;2023-11-21T01:20:57;7.50;99.90
46416;DHT22;32620;51.704;7.822;2023-11-21T01:23:23;7.50;99.90
46416;DHT22;32620;51.704;7.822;2023-11-21T01:25:49;7.50;99.90
46416;DHT22;32620;51.704;7.822;2023-11-21T01:28:17;7.50;99.90
46416;DHT22;32620;51.704;7.822;2023-11-21T01:30:42;7.50;99.90
46416;DHT22;32620;51.704;7.822;2023-11-21T01:33:08;7.50;99.90
46416;DHT22;32620;51.704;7.822;2023-11-21T01:35:34;7.50;99.90
46416;DHT22;32620;51.704;7.822;2023-11-21T01:38:00;7.50;99.90
46416;DHT22;32620;51.704;7.822;2023-11-21T01:40:25;7.40;99.90
46416;DHT22;32620;51.704;7.822;2023-11-21T01:42:53;7.40;99.90
46416;DHT22;32620;51.704;7.822;2023-11-21T01:45:19;7.40;99.90
46416;DHT22;32620;51.704;7.822;2023-11-21T01:47:45;7.40;99.90
46416;DHT22;32620;51.704;7.822;2023-11-21T01:50:15;7.40;99.90
46416;DHT22;32620;51.704;7.822;2023-11-21T01:52:44;7.40;99.90
46416;DHT22;32620;51.704;7.822;2023-11-21T01:55:10;7.40;99.90
46416;DHT22;32620;51.704;7.822;2023-11-21T01:57:37;7.40;99.90
46416;DHT22;32620;51.704;7.822;2023-11-21T02:00:04;7.30;99.90
46416;DHT22;32620;51.704;7.822;2023-11-21T02:02:42;7.30;99.90
46416;DHT22;32620;51.704;7.822;2023-11-21T02:05:07;7.30;99.90
46416;DHT22;32620;51.704;7.822;2023-11-21T02:07:34;7.30;99.90
46416;DHT22;32620;51.704;7.822;2023-11-21T02:10:00;7.30;99.90
46416;DHT22;32620;51.704;7.822;2023-11-21T02:12:26;7.30;99.90
46416;DHT22;32620;51.704;7.822;2023-11-21T02:14:52;7.30;99.90
46416;DHT22;32620;51.704;7.822;2023-11-21T02:17:17;7.30;99.90
46416;DHT22;32620;51.704;7.822;2023-11-21T02:19:43;7.30;99.90
46416;DHT22;32620;51.704;7.822;2023-11-21T02:22:10;7.30;99.90
46416;DHT22;32620;51.704;7.822;2023-11-21T02:24:37;7.30;99.90
46416;DHT22;32620;51.704;7.822;2023-11-21T02:27:03;7.30;99.90
46416;DHT22;32620;51.704;7.822;2023-11-21T02:29:28;7.30;99.90
46416;DHT22;32620;51.704;7.822;2023-11-21T02:31:54;7.30;99.90
46416;DHT22;32620;51.704;7.822;2023-11-21T02:34:22;7.30;99.90
46416;DHT22;32620;51.704;7.822;2023-11-21T02:36:48;7.30;99.90
46416;DHT22;32620;51.704;7.822;2023-11-21T02:39:15;7.30;99.90
46416;DHT22;32620;51.704;7.822;2023-11-21T02:41:42;7.30;99.90
46416;DHT22;32620;51.704;7.822;2023-11-21T02:44:08;7.40;99.90
46416;DHT22;32620;51.704;7.822;2023-11-21T02:46:36;7.40;99.90
46416;DHT22;32620;51.704;7.822;2023-11-21T02:49:02;7.40;99.90
46416;DHT22;32620;51.704;7.822;2023-11-21T02:51:28;7.40;99.90
46416;DHT22;32620;51.704;7.822;2023-11-21T02:53:54;7.40;99.90
46416;DHT22;32620;51.704;7.822;2023-11-21T02:56:24;7.40;99.90
46416;DHT22;32620;51.704;7.822;2023-11-21T02:58:50;7.40;99.90
46416;DHT22;32620;51.704;7.822;2023-11-21T03:01:16;7.40;99.90
46416;DHT22;32620;51.704;7.822;2023-11-21T03:03:42;7.40;99.90
46416;DHT22;32620;51.704;7.822;2023-11-21T03:06:08;7.40;99.90
46416;DHT22;32620;51.704;7.822;2023-11-21T03:08:34;7.30;99.90
46416;DHT22;32620;51.704;7.822;2023-11-21T03:11:00;7.30;99.90
46416;DHT22;32620;51.704;7.822;2023-11-21T03:13:25;7.30;99.90
46416;DHT22;32620;51.704;7.822;2023-11-21T03:15:51;7.30;99.90
46416;DHT22;32620;51.704;7.822;2023-11-21T03:18:17;7.30;99.90
46416;DHT22;32620;51.704;7.822;2023-11-21T03:20:43;7.30;99.90
46416;DHT22;32620;51.704;7.822;2023-11-21T03:23:11;7.30;99.90
46416;DHT22;32620;51.704;7.822;2023-11-21T03:25:37;7.40;99.90
46416;DHT22;32620;51.704;7.822;2023-11-21T03:28:03;7.40;99.90
46416;DHT22;32620;51.704;7.822;2023-11-21T03:30:28;7.40;99.90
46416;DHT22;32620;51.704;7.822;2023-11-21T03:32:54;7.40;99.90
46416;DHT22;32620;51.704;7.822;2023-11-21T03:35:20;7.40;99.90
46416;DHT22;32620;51.704;7.822;2023-11-21T03:37:46;7.40;99.90
46416;DHT22;32620;51.704;7.822;2023-11-21T03:40:12;7.40;99.90
46416;DHT22;32620;51.704;7.822;2023-11-21T03:42:39;7.40;99.90
46416;DHT22;32620;51.704;7.822;2023-11-21T03:45:05;7.40;99.90
46416;DHT22;32620;51.704;7.822;2023-11-21T03:47:31;7.40;99.90
46416;DHT22;32620;51.704;7.822;2023-11-21T03:49:57;7.40;99.90
46416;DHT22;32620;51.704;7.822;2023-11-21T03:52:24;7.50;99.90
46416;DHT22;32620;51.704;7.822;2023-11-21T03:54:49;7.50;99.90
46416;DHT22;32620;51.704;7.822;2023-11-21T03:57:15;7.50;99.90
46416;DHT22;32620;51.704;7.822;2023-11-21T03:59:41;7.50;99.90
46416;DHT22;32620;51.704;7.822;2023-11-21T04:02:07;7.50;99.90
46416;DHT22;32620;51.704;7.822;2023-11-21T04:04:34;7.50;99.90
46416;DHT22;32620;51.704;7.822;2023-11-21T04:06:59;7.50;99.90
46416;DHT22;32620;51.704;7.822;2023-11-21T04:09:25;7.50;99.90
46416;DHT22;32620;51.704;7.822;2023-11-21T04:11:52;7.50;99.90
46416;DHT22;32620;51.704;7.822;2023-11-21T04:14:17;7.40;99.90
46416;DHT22;32620;51.704;7.822;2023-11-21T04:16:43;7.40;99.90
46416;DHT22;32620;51.704;7.822;2023-11-21T04:19:09;7.40;99.90
46416;DHT22;32620;51.704;7.822;2023-11-21T04:21:36;7.40;99.90
46416;DHT22;32620;51.704;7.822;2023-11-21T04:24:02;7.40;99.90
46416;DHT22;32620;51.704;7.822;2023-11-21T04:26:28;7.40;99.90
46416;DHT22;32620;51.704;7.822;2023-11-21T04:28:53;7.50;99.90
46416;DHT22;32620;51.704;7.822;2023-11-21T04:31:19;7.50;99.90
46416;DHT22;32620;51.704;7.822;2023-11-21T04:33:45;7.50;99.90
46416;DHT22;32620;51.704;7.822;2023-11-21T04:36:10;7.50;99.90
46416;DHT22;32620;51.704;7.822;2023-11-21T04:38:36;7.50;99.90
46416;DHT22;32620;51.704;7.822;2023-11-21T04:41:02;7.50;99.90
46416;DHT22;32620;51.704;7.822;2023-11-21T04:43:27;7.50;99.90
46416;DHT22;32620;51.704;7.822;2023-11-21T04:45:54;7.50;99.90
46416;DHT22;32620;51.704;7.822;2023-11-21T04:48:20;7.50;99.90
46416;DHT22;32620;51.704;7.822;2023-11-21T04:50:45;7.50;99.90
46416;DHT22;32620;51.704;7.822;2023-11-21T04:53:11;7.50;99.90
46416;DHT22;32620;51.704;7.822;2023-11-21T04:55:40;7.50;99.90
46416;DHT22;32620;51.704;7.822;2023-11-21T04:58:07;7.50;99.90
46416;DHT22;32620;51.704;7.822;2023-11-21T05:00:33;7.50;99.90
46416;DHT22;32620;51.704;7.822;2023-11-21T05:02:59;7.50;99.90
46416;DHT22;32620;51.704;7.822;2023-11-21T05:05:26;7.60;99.90
46416;DHT22;32620;51.704;7.822;2023-11-21T05:07:52;7.60;99.90
46416;DHT22;32620;51.704;7.822;2023-11-21T05:10:19;7.60;99.90
46416;DHT22;32620;51.704;7.822;2023-11-21T05:12:45;7.50;99.90
46416;DHT22;32620;51.704;7.822;2023-11-21T05:15:14;7.60;99.90
46416;DHT22;32620;51.704;7.822;2023-11-21T05:17:40;7.60;99.90
46416;DHT22;32620;51.704;7.822;2023-11-21T05:20:08;7.50;99.90
46416;DHT22;32620;51.704;7.822;2023-11-21T05:22:35;7.50;99.90
46416;DHT22;32620;51.704;7.822;2023-11-21T05:25:02;7.50;99.90
46416;DHT22;32620;51.704;7.822;2023-11-21T05:27:29;7.50;99.90
46416;DHT22;32620;51.704;7.822;2023-11-21T05:29:56;7.40;99.90
46416;DHT22;32620;51.704;7.822;2023-11-21T05:32:22;7.40;99.90
46416;DHT22;32620;51.704;7.822;2023-11-21T05:34:49;7.40;99.90
46416;DHT22;32620;51.704;7.822;2023-11-21T05:37:14;7.40;99.90
46416;DHT22;32620;51.704;7.822;2023-11-21T05:39:40;7.40;99.90
46416;DHT22;32620;51.704;7.822;2023-11-21T05:42:06;7.40;99.90
46416;DHT22;32620;51.704;7.822;2023-11-21T05:44:31;7.40;99.90
46416;DHT22;32620;51.704;7.822;2023-11-21T05:46:57;7.40;99.90
46416;DHT22;32620;51.704;7.822;2023-11-21T05:49:24;7.40;99.90
46416;DHT22;32620;51.704;7.822;2023-11-21T05:51:53;7.40;99.90
46416;DHT22;32620;51.704;7.822;2023-11-21T05:54:19;7.50;99.90
46416;DHT22;32620;51.704;7.822;2023-11-21T05:56:45;7.50;99.90
46416;DHT22;32620;51.704;7.822;2023-11-21T05:59:12;7.50;99.90
46416;DHT22;32620;51.704;7.822;2023-11-21T06:01:38;7.60;99.90
46416;DHT22;32620;51.704;7.822;2023-11-21T06:04:04;7.60;99.90
46416;DHT22;32620;51.704;7.822;2023-11-21T06:06:30;7.60;99.90
46416;DHT22;32620;51.704;7.822;2023-11-21T06:08:57;7.60;99.90
46416;DHT22;32620;51.704;7.822;2023-11-21T06:11:22;7.70;99.90
46416;DHT22;32620;51.704;7.822;2023-11-21T06:13:48;7.70;99.90
46416;DHT22;32620;51.704;7.822;2023-11-21T06:16:15;7.70;99.90
46416;DHT22;32620;51.704;7.822;2023-11-21T06:18:42;7.70;99.90
46416;DHT22;32620;51.704;7.822;2023-11-21T06:21:10;7.70;99.90
46416;DHT22;32620;51.704;7.822;2023-11-21T06:23:36;7.80;99.90
46416;DHT22;32620;51.704;7.822;2023-11-21T06:26:01;7.80;99.90
46416;DHT22;32620;51.704;7.822;2023-11-21T06:28:27;7.80;99.90
46416;DHT22;32620;51.704;7.822;2023-11-21T06:30:53;7.90;99.90
46416;DHT22;32620;51.704;7.822;2023-11-21T06:33:18;7.90;99.90
46416;DHT22;32620;51.704;7.822;2023-11-21T06:35:44;7.90;99.90
46416;DHT22;32620;51.704;7.822;2023-11-21T06:38:10;7.90;99.90
46416;DHT22;32620;51.704;7.822;2023-11-21T06:40:36;7.90;99.90
46416;DHT22;32620;51.704;7.822;2023-11-21T06:43:02;7.90;99.90
46416;DHT22;32620;51.704;7.822;2023-11-21T06:45:27;8.00;99.90
46416;DHT22;32620;51.704;7.822;2023-11-21T06:47:53;8.00;99.90
46416;DHT22;32620;51.704;7.822;2023-11-21T06:50:18;8.00;99.90
46416;DHT22;32620;51.704;7.822;2023-11-21T06:52:44;8.00;99.90
46416;DHT22;32620;51.704;7.822;2023-11-21T06:55:10;8.00;99.90
46416;DHT22;32620;51.704;7.822;2023-11-21T06:57:36;8.00;99.90
46416;DHT22;32620;51.704;7.822;2023-11-21T07:00:02;8.10;99.90
46416;DHT22;32620;51.704;7.822;2023-11-21T07:02:28;8.10;99.90
46416;DHT22;32620;51.704;7.822;2023-11-21T07:04:54;8.10;99.90
46416;DHT22;32620;51.704;7.822;2023-11-21T07:07:20;8.10;99.90
46416;DHT22;32620;51.704;7.822;2023-11-21T07:09:45;8.10;99.90
46416;DHT22;32620;51.704;7.822;2023-11-21T07:12:11;8.20;99.90
46416;DHT22;32620;51.704;7.822;2023-11-21T07:14:37;8.20;99.90
46416;DHT22;32620;51.704;7.822;2023-11-21T07:17:04;8.20;99.90
46416;DHT22;32620;51.704;7.822;2023-11-21T07:19:30;8.20;99.90
46416;DHT22;32620;51.704;7.822;2023-11-21T07:21:56;8.20;99.90
46416;DHT22;32620;51.704;7.822;2023-11-21T07:24:22;8.20;99.90
46416;DHT22;32620;51.704;7.822;2023-11-21T07:26:48;8.20;99.90
46416;DHT22;32620;51.704;7.822;2023-11-21T07:29:14;8.20;99.90
46416;DHT22;32620;51.704;7.822;2023-11-21T07:31:40;8.30;99.90
46416;DHT22;32620;51.704;7.822;2023-11-21T07:34:06;8.30;99.90
46416;DHT22;32620;51.704;7.822;2023-11-21T07:36:33;8.30;99.90
46416;DHT22;32620;51.704;7.822;2023-11-21T07:38:59;8.30;99.90
46416;DHT22;32620;51.704;7.822;2023-11-21T07:41:25;8.30;99.90
46416;DHT22;32620;51.704;7.822;2023-11-21T07:43:51;8.30;99.90
46416;DHT22;32620;51.704;7.822;2023-11-21T07:46:16;8.40;99.90
46416;DHT22;32620;51.704;7.822;2023-11-21T07:48:43;8.40;99.90
46416;DHT22;32620;51.704;7.822;2023-11-21T07:51:10;8.40;99.90
46416;DHT22;32620;51.704;7.822;2023-11-21T07:53:36;8.40;99.90
46416;DHT22;32620;51.704;7.822;2023-11-21T07:56:04;8.50;99.90
46416;DHT22;32620;51.704;7.822;2023-11-21T07:58:30;8.50;99.90
46416;DHT22;32620;51.704;7.822;2023-11-21T08:00:56;8.50;99.90
46416;DHT22;32620;51.704;7.822;2023-11-21T08:03:22;8.50;99.90
46416;DHT22;32620;51.704;7.822;2023-11-21T08:05:47;8.50;99.90
46416;DHT22;32620;51.704;7.822;2023-11-21T08:08:13;8.50;99.90
46416;DHT22;32620;51.704;7.822;2023-11-21T08:10:39;8.60;99.90
46416;DHT22;32620;51.704;7.822;2023-11-21T08:13:05;8.60;99.90
46416;DHT22;32620;51.704;7.822;2023-11-21T08:15:31;8.60;99.90
46416;DHT22;32620;51.704;7.822;2023-11-21T08:17:58;8.60;99.90
46416;DHT22;32620;51.704;7.822;2023-11-21T08:20:24;8.70;99.90
46416;DHT22;32620;51.704;7.822;2023-11-21T08:22:50;8.70;99.90
46416;DHT22;32620;51.704;7.822;2023-11-21T08:25:18;8.70;99.90
46416;DHT22;32620;51.704;7.822;2023-11-21T08:27:45;8.70;99.90
46416;DHT22;32620;51.704;7.822;2023-11-21T08:30:11;8.70;99.90
46416;DHT22;32620;51.704;7.822;2023-11-21T08:32:39;8.60;99.90
46416;DHT22;32620;51.704;7.822;2023-11-21T08:35:05;8.60;99.90
46416;DHT22;32620;51.704;7.822;2023-11-21T08:37:31;8.60;99.90
46416;DHT22;32620;51.704;7.822;2023-11-21T08:39:58;8.60;99.90
46416;DHT22;32620;51.704;7.822;2023-11-21T08:42:25;8.60;99.90
46416;DHT22;32620;51.704;7.822;2023-11-21T08:44:50;8.70;99.90
46416;DHT22;32620;51.704;7.822;2023-11-21T08:47:16;8.70;99.90
46416;DHT22;32620;51.704;7.822;2023-11-21T08:49:42;8.70;99.90
46416;DHT22;32620;51.704;7.822;2023-11-21T08:52:08;8.70;99.90
46416;DHT22;32620;51.704;7.822;2023-11-21T08:54:34;8.70;99.90
46416;DHT22;32620;51.704;7.822;2023-11-21T08:56:59;8.80;99.90
46416;DHT22;32620;51.704;7.822;2023-11-21T08:59:26;8.80;99.90
46416;DHT22;32620;51.704;7.822;2023-11-21T09:01:52;8.80;99.90
46416;DHT22;32620;51.704;7.822;2023-11-21T09:04:17;8.80;99.90
46416;DHT22;32620;51.704;7.822;2023-11-21T09:06:43;8.80;99.90
46416;DHT22;32620;51.704;7.822;2023-11-21T09:09:09;8.90;99.90
46416;DHT22;32620;51.704;7.822;2023-11-21T09:11:36;8.80;99.90
46416;DHT22;32620;51.704;7.822;2023-11-21T09:14:03;8.90;99.90
46416;DHT22;32620;51.704;7.822;2023-11-21T09:16:29;8.90;99.90
46416;DHT22;32620;51.704;7.822;2023-11-21T09:18:55;8.90;99.90
46416;DHT22;32620;51.704;7.822;2023-11-21T09:21:20;8.90;99.90
46416;DHT22;32620;51.704;7.822;2023-11-21T09:23:46;8.90;99.90
46416;DHT22;32620;51.704;7.822;2023-11-21T09:26:12;8.90;99.90
46416;DHT22;32620;51.704;7.822;2023-11-21T09:28:37;8.90;99.90
46416;DHT22;32620;51.704;7.822;2023-11-21T09:31:04;8.90;99.90
46416;DHT22;32620;51.704;7.822;2023-11-21T09:33:30;8.90;99.90
46416;DHT22;32620;51.704;7.822;2023-11-21T09:35:57;8.90;99.90
46416;DHT22;32620;51.704;7.822;2023-11-21T09:38:23;8.90;99.90
46416;DHT22;32620;51.704;7.822;2023-11-21T09:40:49;8.90;99.90
46416;DHT22;32620;51.704;7.822;2023-11-21T09:43:17;8.90;99.90
46416;DHT22;32620;51.704;7.822;2023-11-21T09:45:48;8.90;99.90
46416;DHT22;32620;51.704;7.822;2023-11-21T09:48:14;8.90;99.90
46416;DHT22;32620;51.704;7.822;2023-11-21T09:50:42;8.90;99.90
46416;DHT22;32620;51.704;7.822;2023-11-21T09:53:27;8.90;99.90
46416;DHT22;32620;51.704;7.822;2023-11-21T09:55:55;9.00;99.90
46416;DHT22;32620;51.704;7.822;2023-11-21T09:58:22;9.00;99.90
46416;DHT22;32620;51.704;7.822;2023-11-21T10:00:49;8.90;99.90
46416;DHT22;32620;51.704;7.822;2023-11-21T10:03:16;8.90;99.90
46416;DHT22;32620;51.704;7.822;2023-11-21T10:05:43;8.90;99.90
46416;DHT22;32620;51.704;7.822;2023-11-21T10:08:12;9.00;99.90
46416;DHT22;32620;51.704;7.822;2023-11-21T10:10:42;9.00;99.90
46416;DHT22;32620;51.704;7.822;2023-11-21T10:13:12;9.00;99.90
46416;DHT22;32620;51.704;7.822;2023-11-21T10:15:38;9.00;99.90
46416;DHT22;32620;51.704;7.822;2023-11-21T10:18:04;9.10;99.90
46416;DHT22;32620;51.704;7.822;2023-11-21T10:20:33;9.10;99.90
46416;DHT22;32620;51.704;7.822;2023-11-21T10:23:01;9.20;99.90
46416;DHT22;32620;51.704;7.822;2023-11-21T10:25:28;9.20;99.90
46416;DHT22;32620;51.704;7.822;2023-11-21T10:28:02;9.20;99.90
46416;DHT22;32620;51.704;7.822;2023-11-21T10:30:36;9.30;99.90
46416;DHT22;32620;51.704;7.822;2023-11-21T10:33:04;9.30;99.90
46416;DHT22;32620;51.704;7.822;2023-11-21T10:35:47;9.30;99.90
46416;DHT22;32620;51.704;7.822;2023-11-21T10:38:16;9.30;99.90
46416;DHT22;32620;51.704;7.822;2023-11-21T10:40:42;9.30;99.90
46416;DHT22;32620;51.704;7.822;2023-11-21T10:43:10;9.30;99.90
46416;DHT22;32620;51.704;7.822;2023-11-21T10:45:37;9.30;99.90
46416;DHT22;32620;51.704;7.822;2023-11-21T10:48:06;9.30;99.90
46416;DHT22;32620;51.704;7.822;2023-11-21T10:50:34;9.20;99.90
46416;DHT22;32620;51.704;7.822;2023-11-21T10:53:04;9.20;99.90
46416;DHT22;32620;51.704;7.822;2023-11-21T10:55:31;9.30;99.90
46416;DHT22;32620;51.704;7.822;2023-11-21T10:58:00;9.30;99.90
46416;DHT22;32620;51.704;7.822;2023-11-21T11:00:28;9.30;99.90
46416;DHT22;32620;51.704;7.822;2023-11-21T11:02:55;9.40;99.90
46416;DHT22;32620;51.704;7.822;2023-11-21T11:05:22;9.30;99.90
46416;DHT22;32620;51.704;7.822;2023-11-21T11:07:55;9.30;99.90
46416;DHT22;32620;51.704;7.822;2023-11-21T11:10:26;9.30;99.90
46416;DHT22;32620;51.704;7.822;2023-11-21T11:12:54;9.30;99.90
46416;DHT22;32620;51.704;7.822;2023-11-21T11:15:21;9.20;99.90
46416;DHT22;32620;51.704;7.822;2023-11-21T11:17:48;9.30;99.90
46416;DHT22;32620;51.704;7.822;2023-11-21T11:20:15;9.20;99.90
46416;DHT22;32620;51.704;7.822;2023-11-21T11:23:10;9.20;99.90
46416;DHT22;32620;51.704;7.822;2023-11-21T11:26:09;9.20;99.90
46416;DHT22;32620;51.704;7.822;2023-11-21T11:28:47;9.20;99.90
46416;DHT22;32620;51.704;7.822;2023-11-21T11:31:38;9.10;99.90
46416;DHT22;32620;51.704;7.822;2023-11-21T11:34:29;9.10;99.90
46416;DHT22;32620;51.704;7.822;2023-11-21T11:37:07;9.20;99.90
46416;DHT22;32620;51.704;7.822;2023-11-21T11:39:39;9.10;99.90
46416;DHT22;32620;51.704;7.822;2023-11-21T11:42:07;9.20;99.90
46416;DHT22;32620;51.704;7.822;2023-11-21T11:44:50;9.10;99.90
46416;DHT22;32620;51.704;7.822;2023-11-21T11:50:02;9.10;99.90
46416;DHT22;32620;51.704;7.822;2023-11-21T11:52:52;9.20;99.90
46416;DHT22;32620;51.704;7.822;2023-11-21T11:55:22;9.20;99.90
46416;DHT22;32620;51.704;7.822;2023-11-21T11:57:51;9.10;99.90
46416;DHT22;32620;51.704;7.822;2023-11-21T12:00:19;9.10;99.90
46416;DHT22;32620;51.704;7.822;2023-11-21T12:02:48;9.10;99.90
46416;DHT22;32620;51.704;7.822;2023-11-21T12:05:16;9.20;99.90
46416;DHT22;32620;51.704;7.822;2023-11-21T12:08:02;9.20;99.90
46416;DHT22;32620;51.704;7.822;2023-11-21T12:10:30;9.20;99.90
46416;DHT22;32620;51.704;7.822;2023-11-21T12:12:58;9.30;99.90
46416;DHT22;32620;51.704;7.822;2023-11-21T12:15:25;9.20;99.90
46416;DHT22;32620;51.704;7.822;2023-11-21T12:17:51;9.30;99.90
46416;DHT22;32620;51.704;7.822;2023-11-21T12:20:20;9.20;99.90
46416;DHT22;32620;51.704;7.822;2023-11-21T12:22:47;9.20;99.90
46416;DHT22;32620;51.704;7.822;2023-11-21T12:25:14;9.20;99.90
46416;DHT22;32620;51.704;7.822;2023-11-21T12:27:42;9.10;99.90
46416;DHT22;32620;51.704;7.822;2023-11-21T12:30:09;9.10;99.90
46416;DHT22;32620;51.704;7.822;2023-11-21T12:32:39;9.10;99.90
46416;DHT22;32620;51.704;7.822;2023-11-21T12:35:07;9.10;99.90
46416;DHT22;32620;51.704;7.822;2023-11-21T12:37:33;9.10;99.90
46416;DHT22;32620;51.704;7.822;2023-11-21T12:39:59;9.10;99.90
46416;DHT22;32620;51.704;7.822;2023-11-21T12:42:25;9.10;99.90
46416;DHT22;32620;51.704;7.822;2023-11-21T12:45:18;9.00;99.90
46416;DHT22;32620;51.704;7.822;2023-11-21T12:47:44;9.00;99.90
46416;DHT22;32620;51.704;7.822;2023-11-21T12:50:11;9.10;99.90
46416;DHT22;32620;51.704;7.822;2023-11-21T12:52:41;9.10;99.90
46416;DHT22;32620;51.704;7.822;2023-11-21T12:55:09;9.10;99.90
46416;DHT22;32620;51.704;7.822;2023-11-21T12:57:35;9.10;99.90
46416;DHT22;32620;51.704;7.822;2023-11-21T13:00:04;9.00;99.90
46416;DHT22;32620;51.704;7.822;2023-11-21T13:02:37;8.90;99.90
46416;DHT22;32620;51.704;7.822;2023-11-21T13:05:04;8.90;99.90
46416;DHT22;32620;51.704;7.822;2023-11-21T13:07:41;8.90;99.90
46416;DHT22;32620;51.704;7.822;2023-11-21T13:10:12;8.90;99.90
46416;DHT22;32620;51.704;7.822;2023-11-21T13:12:43;8.80;99.90
46416;DHT22;32620;51.704;7.822;2023-11-21T13:15:14;8.80;99.90
46416;DHT22;32620;51.704;7.822;2023-11-21T13:17:42;8.80;99.90
46416;DHT22;32620;51.704;7.822;2023-11-21T13:20:10;8.70;99.90
46416;DHT22;32620;51.704;7.822;2023-11-21T13:22:46;8.70;99.90
46416;DHT22;32620;51.704;7.822;2023-11-21T13:25:15;8.70;99.90
46416;DHT22;32620;51.704;7.822;2023-11-21T13:27:43;8.60;99.90
46416;DHT22;32620;51.704;7.822;2023-11-21T13:30:10;8.60;99.90
46416;DHT22;32620;51.704;7.822;2023-11-21T13:32:36;8.60;99.90
46416;DHT22;32620;51.704;7.822;2023-11-21T13:35:02;8.60;99.90
46416;DHT22;32620;51.704;7.822;2023-11-21T13:37:27;8.40;99.90
46416;DHT22;32620;51.704;7.822;2023-11-21T13:39:53;8.40;99.90
46416;DHT22;32620;51.704;7.822;2023-11-21T13:42:20;8.30;99.90
46416;DHT22;32620;51.704;7.822;2023-11-21T13:44:56;8.30;99.90
46416;DHT22;32620;51.704;7.822;2023-11-21T13:47:22;8.40;99.90
46416;DHT22;32620;51.704;7.822;2023-11-21T13:49:51;8.40;99.90
46416;DHT22;32620;51.704;7.822;2023-11-21T13:52:16;8.40;99.90
46416;DHT22;32620;51.704;7.822;2023-11-21T13:54:43;8.30;99.90
46416;DHT22;32620;51.704;7.822;2023-11-21T13:57:08;8.30;99.90
46416;DHT22;32620;51.704;7.822;2023-11-21T13:59:35;8.30;99.90
46416;DHT22;32620;51.704;7.822;2023-11-21T14:02:02;8.30;99.90
46416;DHT22;32620;51.704;7.822;2023-11-21T14:04:42;8.40;99.90
46416;DHT22;32620;51.704;7.822;2023-11-21T14:07:21;8.40;99.90
46416;DHT22;32620;51.704;7.822;2023-11-21T14:10:02;8.40;99.90
46416;DHT22;32620;51.704;7.822;2023-11-21T14:12:29;8.30;99.90
46416;DHT22;32620;51.704;7.822;2023-11-21T14:14:59;8.20;99.90
46416;DHT22;32620;51.704;7.822;2023-11-21T14:17:25;8.10;99.90
46416;DHT22;32620;51.704;7.822;2023-11-21T14:19:50;8.10;99.90
46416;DHT22;32620;51.704;7.822;2023-11-21T14:22:16;8.10;99.90
46416;DHT22;32620;51.704;7.822;2023-11-21T14:24:42;8.10;99.90
46416;DHT22;32620;51.704;7.822;2023-11-21T14:27:12;8.10;99.90
46416;DHT22;32620;51.704;7.822;2023-11-21T14:29:38;8.10;99.90
46416;DHT22;32620;51.704;7.822;2023-11-21T14:32:07;8.00;99.90
46416;DHT22;32620;51.704;7.822;2023-11-21T14:34:33;8.00;99.90
46416;DHT22;32620;51.704;7.822;2023-11-21T14:36:59;7.90;99.90
46416;DHT22;32620;51.704;7.822;2023-11-21T14:39:24;7.90;99.90
46416;DHT22;32620;51.704;7.822;2023-11-21T14:41:54;7.90;99.90
46416;DHT22;32620;51.704;7.822;2023-11-21T14:44:21;7.90;99.90
46416;DHT22;32620;51.704;7.822;2023-11-21T14:46:51;7.80;99.90
46416;DHT22;32620;51.704;7.822;2023-11-21T14:49:18;7.80;99.90
46416;DHT22;32620;51.704;7.822;2023-11-21T14:51:50;7.80;99.90
46416;DHT22;32620;51.704;7.822;2023-11-21T14:54:26;7.70;99.90
46416;DHT22;32620;51.704;7.822;2023-11-21T14:57:13;7.70;99.90
46416;DHT22;32620;51.704;7.822;2023-11-21T14:59:45;7.70;99.90
46416;DHT22;32620;51.704;7.822;2023-11-21T15:02:23;7.70;99.90
46416;DHT22;32620;51.704;7.822;2023-11-21T15:05:09;7.60;99.90
46416;DHT22;32620;51.704;7.822;2023-11-21T15:07:40;7.50;99.90
46416;DHT22;32620;51.704;7.822;2023-11-21T15:10:06;7.50;99.90
46416;DHT22;32620;51.704;7.822;2023-11-21T15:12:38;7.50;99.90
46416;DHT22;32620;51.704;7.822;2023-11-21T15:15:05;7.40;99.90
46416;DHT22;32620;51.704;7.822;2023-11-21T15:17:35;7.50;99.90
46416;DHT22;32620;51.704;7.822;2023-11-21T15:20:02;7.40;99.90
46416;DHT22;32620;51.704;7.822;2023-11-21T15:22:29;7.50;99.90
46416;DHT22;32620;51.704;7.822;2023-11-21T15:24:55;7.40;99.90
46416;DHT22;32620;51.704;7.822;2023-11-21T15:27:21;7.40;99.90
46416;DHT22;32620;51.704;7.822;2023-11-21T15:29:47;7.40;99.90
46416;DHT22;32620;51.704;7.822;2023-11-21T15:32:15;7.40;99.90
46416;DHT22;32620;51.704;7.822;2023-11-21T15:34:41;7.40;99.90
46416;DHT22;32620;51.704;7.822;2023-11-21T15:37:07;7.40;99.90
46416;DHT22;32620;51.704;7.822;2023-11-21T15:39:37;7.30;99.90
46416;DHT22;32620;51.704;7.822;2023-11-21T15:42:04;7.30;99.90
46416;DHT22;32620;51.704;7.822;2023-11-21T15:44:32;7.30;99.90
46416;DHT22;32620;51.704;7.822;2023-11-21T15:46:58;7.30;99.90
46416;DHT22;32620;51.704;7.822;2023-11-21T15:49:24;7.30;99.90